createdAt,value
2022-08-16T00:01:50.199Z,18.80
2022-08-16T00:04:52.351Z,18.83
2022-08-16T00:07:56.236Z,18.80
2022-08-16T00:10:58.769Z,18.72
2022-08-16T00:14:08.704Z,18.65
2022-08-16T00:17:18.428Z,18.59
2022-08-16T00:20:21.962Z,18.54
2022-08-16T00:23:34.462Z,18.48
2022-08-16T00:26:45.131Z,18.43
2022-08-16T00:30:00.475Z,18.44
2022-08-16T00:33:11.050Z,18.39
2022-08-16T00:36:16.825Z,18.35
2022-08-16T00:39:19.061Z,18.38
2022-08-16T00:42:30.275Z,18.31
2022-08-16T00:45:37.259Z,18.31
2022-08-16T00:48:59.023Z,18.32
2022-08-16T00:52:02.074Z,18.39
2022-08-16T00:55:11.382Z,18.37
2022-08-16T00:58:32.222Z,18.39
2022-08-16T01:01:38.702Z,18.41
2022-08-16T01:04:40.765Z,18.41
2022-08-16T01:08:30.024Z,18.43
2022-08-16T01:11:25.610Z,18.44
2022-08-16T01:14:31.719Z,18.43
2022-08-16T01:17:36.701Z,18.44
2022-08-16T01:20:49.186Z,18.43
2022-08-16T01:24:03.930Z,18.43
2022-08-16T01:27:08.019Z,18.43
2022-08-16T01:30:20.342Z,18.39
2022-08-16T01:33:25.290Z,18.37
2022-08-16T01:36:36.423Z,18.42
2022-08-16T01:39:41.978Z,18.41
2022-08-16T01:42:48.174Z,18.45
2022-08-16T01:45:57.449Z,18.42
2022-08-16T01:49:02.026Z,18.38
2022-08-16T01:52:06.434Z,18.34
2022-08-16T01:55:35.582Z,18.31
2022-08-16T01:58:37.960Z,18.32
2022-08-16T02:01:52.907Z,18.30
2022-08-16T02:05:02.133Z,18.31
2022-08-16T02:08:09.484Z,18.33
2022-08-16T02:11:47.634Z,18.32
2022-08-16T02:14:51.174Z,18.37
2022-08-16T02:17:53.408Z,18.36
2022-08-16T02:20:57.779Z,18.37
2022-08-16T02:24:01.954Z,18.41
2022-08-16T02:27:05.547Z,18.43
2022-08-16T02:30:36.667Z,18.43
2022-08-16T02:33:43.826Z,18.47
2022-08-16T02:36:50.855Z,18.52
2022-08-16T02:39:54.031Z,18.48
2022-08-16T02:42:57.927Z,18.45
2022-08-16T02:46:00.313Z,18.42
2022-08-16T02:49:02.645Z,18.34
2022-08-16T02:52:05.030Z,18.29
2022-08-16T02:55:11.810Z,18.21
2022-08-16T02:58:19.260Z,18.14
2022-08-16T03:01:25.048Z,18.10
2022-08-16T03:04:52.380Z,18.07
2022-08-16T03:07:54.545Z,18.02
2022-08-16T03:10:59.261Z,18.03
2022-08-16T03:14:07.348Z,18.04
2022-08-16T03:17:09.902Z,18.02
2022-08-16T03:20:13.461Z,18.03
2022-08-16T03:23:20.767Z,18.04
2022-08-16T03:26:25.189Z,18.01
2022-08-16T03:29:30.007Z,18.03
2022-08-16T03:32:32.167Z,18.03
2022-08-16T03:35:35.057Z,18.02
2022-08-16T03:38:40.134Z,17.96
2022-08-16T03:41:50.233Z,17.90
2022-08-16T03:45:03.746Z,17.83
2022-08-16T03:48:07.181Z,17.79
2022-08-16T03:51:12.941Z,17.74
2022-08-16T03:54:14.717Z,17.71
2022-08-16T03:57:16.591Z,17.65
2022-08-16T04:00:40.906Z,17.63
2022-08-16T04:03:43.193Z,17.62
2022-08-16T04:06:45.900Z,17.61
2022-08-16T04:09:47.799Z,17.55
2022-08-16T04:12:53.439Z,17.57
2022-08-16T04:15:59.808Z,17.65
2022-08-16T04:19:04.982Z,17.68
2022-08-16T04:22:08.466Z,17.67
2022-08-16T04:25:15.922Z,17.65
2022-08-16T04:28:52.407Z,17.64
2022-08-16T04:31:40.883Z,17.63
2022-08-16T04:34:45.573Z,17.62
2022-08-16T04:37:47.916Z,17.62
2022-08-16T04:40:55.697Z,17.62
2022-08-16T04:44:32.560Z,17.71
2022-08-16T04:47:31.575Z,17.78
2022-08-16T04:50:36.679Z,17.86
2022-08-16T04:53:45.374Z,17.88
2022-08-16T04:56:54.910Z,17.90
2022-08-16T05:00:31.157Z,17.93
2022-08-16T05:03:24.685Z,17.96
2022-08-16T05:06:44.975Z,18.02
2022-08-16T05:09:49.331Z,18.05
2022-08-16T05:12:51.134Z,18.09
2022-08-16T05:15:54.068Z,18.08
2022-08-16T05:18:58.817Z,18.12
2022-08-16T05:22:02.311Z,18.15
2022-08-16T05:25:08.837Z,18.16
2022-08-16T05:28:11.895Z,18.20
2022-08-16T05:31:16.574Z,18.18
2022-08-16T05:34:22.774Z,18.21
2022-08-16T05:37:24.640Z,18.26
2022-08-16T05:40:27.374Z,18.30
2022-08-16T05:43:32.012Z,18.35
2022-08-16T05:46:45.573Z,18.36
2022-08-16T05:49:50.661Z,18.35
2022-08-16T05:52:53.546Z,18.34
2022-08-16T05:55:56.351Z,18.32
2022-08-16T05:59:00.228Z,18.30
2022-08-16T06:02:03.654Z,18.30
2022-08-16T06:05:12.428Z,18.29
2022-08-16T06:08:32.306Z,18.29
2022-08-16T06:11:38.839Z,18.28
2022-08-16T06:14:44.828Z,18.25
2022-08-16T06:17:47.407Z,18.25
2022-08-16T06:20:56.053Z,18.25
2022-08-16T06:24:01.650Z,18.31
2022-08-16T06:27:23.682Z,18.40
2022-08-16T06:30:28.658Z,18.49
2022-08-16T06:33:41.501Z,18.57
2022-08-16T06:37:18.323Z,18.62
2022-08-16T06:40:20.055Z,18.68
2022-08-16T06:43:27.347Z,18.76
2022-08-16T06:46:34.232Z,18.79
2022-08-16T06:49:35.826Z,18.85
2022-08-16T06:53:09.123Z,18.92
2022-08-16T06:56:05.632Z,19.02
2022-08-16T06:59:09.208Z,19.07
2022-08-16T07:02:32.806Z,19.13
2022-08-16T07:05:41.684Z,19.21
2022-08-16T07:08:46.513Z,19.28
2022-08-16T07:11:51.599Z,19.37
2022-08-16T07:14:58.423Z,19.42
2022-08-16T07:18:03.414Z,19.44
2022-08-16T07:21:06.101Z,19.55
2022-08-16T07:24:10.532Z,19.60
2022-08-16T07:27:32.155Z,19.67
2022-08-16T07:30:45.729Z,19.77
2022-08-16T07:33:51.782Z,19.83
2022-08-16T07:36:58.340Z,19.91
2022-08-16T07:40:11.034Z,19.99
2022-08-16T07:43:13.409Z,20.07
2022-08-16T07:46:38.609Z,20.11
2022-08-16T07:49:36.736Z,20.26
2022-08-16T07:52:55.157Z,20.32
2022-08-16T07:56:04.303Z,20.35
2022-08-16T07:59:07.387Z,20.41
2022-08-16T08:02:11.989Z,20.49
2022-08-16T08:05:13.849Z,20.57
2022-08-16T08:08:51.503Z,20.63
2022-08-16T08:11:40.660Z,20.74
2022-08-16T08:15:02.041Z,20.79
2022-08-16T08:18:30.373Z,20.84
2022-08-16T08:22:00.190Z,20.87
2022-08-16T08:24:53.321Z,21.06
2022-08-16T08:28:03.533Z,21.12
2022-08-16T08:31:06.073Z,21.11
2022-08-16T08:34:09.362Z,21.17
2022-08-16T08:37:14.717Z,21.17
2022-08-16T08:40:18.591Z,21.26
2022-08-16T08:43:22.574Z,21.38
2022-08-16T08:46:25.836Z,21.48
2022-08-16T08:49:46.164Z,21.53
2022-08-16T08:52:52.800Z,21.54
2022-08-16T08:55:59.092Z,21.62
2022-08-16T08:59:12.721Z,21.68
2022-08-16T09:02:16.678Z,21.76
2022-08-16T09:05:22.753Z,21.79
2022-08-16T09:08:30.382Z,21.90
2022-08-16T09:11:41.050Z,21.99
2022-08-16T09:14:49.439Z,21.92
2022-08-16T09:17:55.631Z,21.99
2022-08-16T09:21:00.584Z,22.15
2022-08-16T09:24:04.702Z,22.23
2022-08-16T09:27:11.495Z,22.24
2022-08-16T09:30:36.470Z,22.35
2022-08-16T09:33:37.161Z,22.39
2022-08-16T09:36:44.958Z,22.30
2022-08-16T09:39:50.231Z,22.54
2022-08-16T09:42:58.725Z,22.48
2022-08-16T09:46:03.670Z,22.44
2022-08-16T09:49:26.375Z,22.53
2022-08-16T09:52:42.730Z,22.75
2022-08-16T09:55:56.790Z,22.73
2022-08-16T09:59:04.929Z,22.87
2022-08-16T10:02:26.155Z,22.89
2022-08-16T10:05:29.228Z,23.06
2022-08-16T10:08:31.774Z,22.76
2022-08-16T10:12:11.461Z,22.88
2022-08-16T10:15:21.206Z,23.17
2022-08-16T10:19:00.676Z,23.31
2022-08-16T10:21:46.709Z,23.33
2022-08-16T10:24:59.726Z,23.53
2022-08-16T10:28:28.020Z,23.59
2022-08-16T10:31:45.632Z,23.74
2022-08-16T10:34:51.452Z,23.82
2022-08-16T10:37:54.756Z,23.83
2022-08-16T10:41:00.910Z,23.64
2022-08-16T10:44:02.673Z,23.45
2022-08-16T10:47:06.115Z,23.75
2022-08-16T10:50:19.700Z,24.15
2022-08-16T10:53:21.936Z,24.33
2022-08-16T10:56:56.163Z,24.39
2022-08-16T10:59:53.231Z,24.47
2022-08-16T11:03:01.243Z,24.60
2022-08-16T11:06:07.493Z,24.71
2022-08-16T11:09:28.867Z,24.76
2022-08-16T11:12:30.829Z,24.84
2022-08-16T11:15:34.329Z,24.65
2022-08-16T11:18:48.303Z,24.46
2022-08-16T11:22:38.624Z,24.09
2022-08-16T11:32:07.967Z,23.73
2022-08-16T11:35:15.730Z,24.25
2022-08-16T11:38:46.679Z,24.43
2022-08-16T11:41:43.442Z,24.45
2022-08-16T11:44:52.761Z,24.24
2022-08-16T11:47:58.147Z,24.28
2022-08-16T11:51:00.940Z,24.45
2022-08-16T11:54:05.141Z,24.69
2022-08-16T11:57:11.848Z,24.62
2022-08-16T12:00:33.760Z,24.53
2022-08-16T12:03:36.390Z,24.57
2022-08-16T12:06:38.162Z,24.85
2022-08-16T12:09:43.434Z,25.05
2022-08-16T12:12:46.728Z,25.22
2022-08-16T12:15:48.777Z,25.39
2022-08-16T12:18:51.984Z,25.17
2022-08-16T12:21:58.092Z,25.08
2022-08-16T12:25:01.981Z,25.00
2022-08-16T12:28:04.791Z,24.75
2022-08-16T12:31:07.453Z,25.02
2022-08-16T12:34:11.254Z,24.95
2022-08-16T12:37:24.426Z,24.92
2022-08-16T12:40:29.966Z,25.18
2022-08-16T12:43:32.005Z,25.32
2022-08-16T12:46:34.098Z,25.11
2022-08-16T12:49:42.138Z,25.18
2022-08-16T12:52:44.474Z,25.40
2022-08-16T12:55:56.187Z,25.42
2022-08-16T12:58:58.082Z,25.60
2022-08-16T13:02:01.250Z,25.78
2022-08-16T13:05:04.352Z,25.69
2022-08-16T13:08:09.481Z,25.48
2022-08-16T13:11:24.644Z,25.35
2022-08-16T13:14:31.291Z,25.13
2022-08-16T13:17:34.947Z,25.04
2022-08-16T13:20:37.540Z,24.92
2022-08-16T13:23:48.548Z,24.82
2022-08-16T13:26:54.438Z,24.71
2022-08-16T13:29:57.557Z,25.08
2022-08-16T13:32:59.607Z,25.37
2022-08-16T13:36:03.245Z,25.68
2022-08-16T13:39:05.172Z,25.91
2022-08-16T13:42:11.174Z,25.86
2022-08-16T13:45:15.685Z,25.83
2022-08-16T13:48:21.876Z,26.18
2022-08-16T13:51:29.309Z,26.45
2022-08-16T13:54:32.977Z,26.61
2022-08-16T13:57:53.630Z,26.68
2022-08-16T14:00:58.059Z,26.76
2022-08-16T14:04:01.776Z,26.67
2022-08-16T14:07:07.532Z,26.69
2022-08-16T14:10:11.246Z,26.76
2022-08-16T14:13:21.048Z,26.79
2022-08-16T14:16:33.578Z,26.88
2022-08-16T14:19:35.963Z,26.91
2022-08-16T14:22:39.847Z,26.92
2022-08-16T14:25:42.408Z,26.95
2022-08-16T14:28:52.507Z,26.94
2022-08-16T14:31:57.005Z,26.76
2022-08-16T14:35:00.104Z,26.88
2022-08-16T14:38:04.729Z,26.88
2022-08-16T14:41:10.177Z,26.90
2022-08-16T14:44:14.244Z,26.87
2022-08-16T14:47:17.033Z,26.57
2022-08-16T14:50:21.536Z,26.33
2022-08-16T14:53:26.834Z,26.59
2022-08-16T14:56:42.632Z,26.67
2022-08-16T14:59:48.685Z,26.85
2022-08-16T15:02:54.125Z,26.77
2022-08-16T15:05:55.785Z,26.82
2022-08-16T15:08:57.429Z,26.94
2022-08-16T15:12:05.089Z,26.97
2022-08-16T15:15:12.026Z,26.97
2022-08-16T15:18:14.451Z,27.04
2022-08-16T15:21:25.443Z,27.02
2022-08-16T15:24:32.075Z,27.03
2022-08-16T15:27:42.252Z,27.15
2022-08-16T15:30:59.987Z,27.19
2022-08-16T15:34:02.579Z,27.26
2022-08-16T15:37:04.267Z,27.29
2022-08-16T15:40:08.176Z,27.33
2022-08-16T15:43:38.922Z,27.23
2022-08-16T15:46:54.700Z,27.22
2022-08-16T15:49:59.031Z,27.14
2022-08-16T15:53:04.459Z,27.01
2022-08-16T15:56:12.148Z,26.93
2022-08-16T15:59:16.171Z,26.89
2022-08-16T16:02:29.150Z,26.84
2022-08-16T16:05:32.872Z,26.80
2022-08-16T16:08:35.218Z,26.85
2022-08-16T16:11:41.025Z,26.84
2022-08-16T16:14:43.299Z,26.77
2022-08-16T16:17:52.078Z,26.74
2022-08-16T16:20:55.074Z,26.72
2022-08-16T16:24:01.330Z,26.71
2022-08-16T16:27:18.304Z,26.79
2022-08-16T16:30:33.297Z,26.76
2022-08-16T16:33:50.410Z,26.80
2022-08-16T16:36:52.552Z,26.77
2022-08-16T16:39:57.285Z,26.71
2022-08-16T16:43:01.033Z,26.75
2022-08-16T16:46:40.683Z,26.73
2022-08-16T16:49:29.134Z,26.62
2022-08-16T16:52:44.039Z,26.76
2022-08-16T16:55:51.719Z,26.70
2022-08-16T16:59:00.839Z,26.56
2022-08-16T17:02:41.746Z,26.37
2022-08-16T17:05:29.293Z,26.23
2022-08-16T17:08:40.951Z,26.11
2022-08-16T17:11:44.500Z,26.02
2022-08-16T17:14:47.382Z,25.91
2022-08-16T17:18:00.321Z,25.82
2022-08-16T17:21:05.929Z,25.75
2022-08-16T17:24:18.363Z,25.68
2022-08-16T17:30:44.936Z,25.53
2022-08-16T17:33:54.609Z,25.43
2022-08-16T17:36:58.927Z,25.37
2022-08-16T17:39:28.236Z,25.62
2022-08-16T17:40:04.223Z,25.28
2022-08-16T17:43:10.646Z,25.20
2022-08-16T17:46:51.801Z,25.12
2022-08-16T17:49:34.882Z,25.02
2022-08-16T17:52:49.058Z,24.94
2022-08-16T17:55:51.408Z,24.85
2022-08-16T17:58:53.412Z,24.77
2022-08-16T18:01:56.307Z,24.71
2022-08-16T18:04:58.944Z,24.61
2022-08-16T18:08:02.105Z,24.54
2022-08-16T18:11:04.014Z,24.49
2022-08-16T18:14:10.313Z,24.39
2022-08-16T18:17:11.987Z,24.32
2022-08-16T18:20:33.795Z,24.26
2022-08-16T18:23:39.858Z,24.18
2022-08-16T18:26:41.544Z,24.14
2022-08-16T18:29:43.730Z,24.08
2022-08-16T18:32:47.889Z,23.99
2022-08-16T18:35:53.122Z,23.88
2022-08-16T18:38:59.033Z,23.82
2022-08-16T18:42:06.719Z,23.79
2022-08-16T18:45:11.592Z,23.72
2022-08-16T18:48:14.225Z,23.63
2022-08-16T18:51:21.524Z,23.55
2022-08-16T18:54:31.894Z,23.50
2022-08-16T18:57:33.645Z,23.42
2022-08-16T19:00:56.833Z,23.35
2022-08-16T19:03:57.762Z,23.29
2022-08-16T19:07:01.326Z,23.23
2022-08-16T19:10:05.457Z,23.16
2022-08-16T19:13:08.363Z,23.10
2022-08-16T19:16:10.111Z,23.06
2022-08-16T19:19:12.295Z,23.01
2022-08-16T19:22:35.003Z,22.95
2022-08-16T19:25:49.471Z,22.91
2022-08-16T19:29:01.919Z,22.86
2022-08-16T19:32:14.970Z,22.82
2022-08-16T19:35:17.383Z,22.78
2022-08-16T19:38:19.429Z,22.76
2022-08-16T19:41:22.396Z,22.73
2022-08-16T19:44:24.161Z,22.70
2022-08-16T19:47:28.365Z,22.70
2022-08-16T19:50:35.994Z,22.66
2022-08-16T19:53:38.278Z,22.61
2022-08-16T19:56:41.513Z,22.56
2022-08-16T19:59:44.094Z,22.51
2022-08-16T20:02:47.174Z,22.47
2022-08-16T20:05:54.781Z,22.43
2022-08-16T20:08:56.641Z,22.37
2022-08-16T20:12:05.112Z,22.35
2022-08-16T20:15:08.421Z,22.33
2022-08-16T20:18:24.394Z,22.32
2022-08-16T20:21:28.464Z,22.25
2022-08-16T20:24:34.685Z,22.23
2022-08-16T20:27:40.054Z,22.20
2022-08-16T20:30:41.691Z,22.17
2022-08-16T20:33:43.858Z,22.13
2022-08-16T20:36:45.852Z,22.11
2022-08-16T20:39:48.343Z,22.08
2022-08-16T20:43:00.513Z,22.04
2022-08-16T20:46:02.661Z,21.96
2022-08-16T20:49:04.864Z,21.92
2022-08-16T20:52:11.897Z,21.86
2022-08-16T20:55:13.532Z,21.84
2022-08-16T20:58:16.956Z,21.80
2022-08-16T21:01:19.110Z,21.76
2022-08-16T21:04:21.760Z,21.73
2022-08-16T21:07:24.112Z,21.70
2022-08-16T21:10:27.032Z,21.70
2022-08-16T21:13:31.306Z,21.63
2022-08-16T21:16:33.089Z,21.62
2022-08-16T21:19:35.905Z,21.59
2022-08-16T21:22:38.073Z,21.54
2022-08-16T21:25:58.914Z,21.48
2022-08-16T21:29:03.141Z,21.39
2022-08-16T21:32:11.645Z,21.35
2022-08-16T21:35:15.536Z,21.29
2022-08-16T21:38:29.053Z,21.22
2022-08-16T21:41:32.632Z,21.17
2022-08-16T21:44:38.717Z,21.17
2022-08-16T21:47:41.131Z,21.10
2022-08-16T21:50:43.221Z,21.06
2022-08-16T21:53:45.262Z,20.99
2022-08-16T21:56:46.947Z,20.93
2022-08-16T21:59:52.046Z,20.93
2022-08-16T22:02:57.379Z,20.88
2022-08-16T22:06:12.242Z,20.88
2022-08-16T22:09:16.223Z,20.88
2022-08-16T22:12:21.511Z,20.98
2022-08-16T22:15:27.266Z,20.93
2022-08-16T22:18:29.173Z,20.86
2022-08-16T22:21:31.580Z,20.77
2022-08-16T22:24:33.410Z,20.75
2022-08-16T22:27:35.221Z,20.75
2022-08-16T22:30:39.144Z,20.66
2022-08-16T22:33:43.183Z,20.60
2022-08-16T22:36:45.001Z,20.53
2022-08-16T22:39:46.696Z,20.52
2022-08-16T22:42:49.069Z,20.50
2022-08-16T22:45:52.359Z,20.48
2022-08-16T22:48:54.557Z,20.49
2022-08-16T22:51:56.696Z,20.56
2022-08-16T22:55:00.817Z,20.61
2022-08-16T22:58:02.923Z,20.62
2022-08-16T23:01:06.507Z,20.67
2022-08-16T23:04:11.259Z,20.65
2022-08-16T23:07:12.965Z,20.61
2022-08-16T23:10:17.228Z,20.62
2022-08-16T23:13:23.118Z,20.64
2022-08-16T23:16:30.826Z,20.69
2022-08-16T23:19:34.586Z,20.72
2022-08-16T23:23:19.669Z,20.65
2022-08-16T23:26:02.388Z,20.66
2022-08-16T23:29:04.734Z,20.63
2022-08-16T23:32:11.619Z,20.48
2022-08-16T23:35:13.684Z,20.38
2022-08-16T23:38:38.303Z,20.25
2022-08-16T23:41:37.626Z,20.16
2022-08-16T23:44:57.175Z,20.11
2022-08-16T23:48:03.463Z,20.06
2022-08-16T23:51:09.254Z,20.01
2022-08-16T23:54:11.974Z,19.94
2022-08-16T23:57:13.881Z,19.88
